»·PEaware :: AAL2133 KPHX-KSAN

AAL2133 :: KPHX-KSAN

FLIGHT INFORMATION

Flight Status: Arrived
Operator:
American Airlines
More flights by this operator :: More flights under this callsign
Pilot: Kyle K. (11122)
Aircraft: BOEING 767-300
(B763)
More flights by this aircraft type
Origin: KPHX Phoenix Sky Harbor Intl
United States
Destination: KSAN San Diego Intl-Lindbergh
United States
More flights between these airports :: More routes between these airports
Route: +JUDTH6 MOHAK J2 HOGGZ LUCKI1
File this flight plan on PilotEdge
Remarks:
Altitude:
(Current/Filed)
36,000ft
Speed:
(Current/Filed)
476kts
Departed: 19-Sep-17 08:54 PM
Arrived: 19-Sep-17 09:43 PM
Distance/Time
Traveled:
264nm/0:48
Distance/Time
To Go:
Arrived

Flight Plot

Page will automatically refresh every two minutes.

Flight plan parsing failed; only flown route is shown


Map Options




Map Legend


Flown Route
Filed Route
Departure Airport
Arrival Airport
Navaid (VOR, NDB)
Fix

Horizontal Profiles

Position Reports

Time Latitude Longitude Heading Altitude Ground
Speed
19-Sep-17 20:39 33.437822 -111.994943 141 1136ft 0kts
19-Sep-17 20:40 33.437822 -111.994943 141 1136ft 0kts
19-Sep-17 20:41 33.437822 -111.994944 141 1136ft 0kts
19-Sep-17 20:42 33.437823 -111.994944 141 1136ft 0kts
19-Sep-17 20:43 33.437823 -111.994944 141 1136ft 0kts
19-Sep-17 20:44 33.437823 -111.994944 141 1136ft 0kts
19-Sep-17 20:45 33.437823 -111.994944 141 1136ft 0kts
19-Sep-17 20:46 33.437823 -111.994944 141 1136ft 0kts
19-Sep-17 20:47 33.437823 -111.994944 141 1136ft 0kts
19-Sep-17 20:48 33.437823 -111.994944 141 1136ft 0kts
19-Sep-17 20:49 33.437822 -111.994943 141 1136ft 0kts
19-Sep-17 20:50 33.437822 -111.994943 141 1136ft 0kts
19-Sep-17 20:51 33.437717 -111.995429 29 1135ft 1kts
19-Sep-17 20:52 33.437669 -111.995456 9 1135ft 0kts
19-Sep-17 20:53 33.437669 -111.995456 9 1135ft 0kts
19-Sep-17 20:54 33.437669 -111.995457 9 1135ft 0kts
19-Sep-17 20:55 33.438074 -111.995380 7 1136ft 8kts
19-Sep-17 20:56 33.439742 -111.993495 87 1139ft 13kts
19-Sep-17 20:57 33.440346 -111.990983 7 1141ft 21kts
19-Sep-17 20:58 33.440794 -112.001097 269 1135ft 123kts
19-Sep-17 20:59 33.428085 -112.053669 244 3074ft 182kts
19-Sep-17 21:00 33.401536 -112.109888 238 5667ft 204kts
19-Sep-17 21:01 33.347600 -112.143631 187 8015ft 277kts
19-Sep-17 21:02 33.277611 -112.180784 212 11203ft 310kts
19-Sep-17 21:03 33.215077 -112.266481 233 14230ft 366kts
19-Sep-17 21:04 33.153832 -112.365510 234 18066ft 383kts
19-Sep-17 21:05 33.088976 -112.470207 234 21430ft 403kts
19-Sep-17 21:06 33.020589 -112.580310 235 24242ft 425kts
19-Sep-17 21:07 32.961117 -112.701683 256 26636ft 442kts
19-Sep-17 21:08 32.939775 -112.847950 261 28965ft 458kts
19-Sep-17 21:09 32.922549 -112.974246 261 30829ft 468kts
19-Sep-17 21:10 32.901864 -113.125372 261 33586ft 460kts
19-Sep-17 21:11 32.881541 -113.272672 261 35888ft 453kts
19-Sep-17 21:12 32.860952 -113.420550 261 35983ft 449kts
19-Sep-17 21:13 32.840382 -113.567016 261 35990ft 451kts
19-Sep-17 21:14 32.819830 -113.712068 261 35955ft 451kts
19-Sep-17 21:15 32.798828 -113.859007 261 35936ft 451kts
19-Sep-17 21:16 32.782501 -114.030699 269 35940ft 450kts
19-Sep-17 21:17 32.785336 -114.154511 273 35936ft 450kts
19-Sep-17 21:18 32.791216 -114.302363 273 35934ft 450kts
19-Sep-17 21:19 32.812443 -114.447920 287 35941ft 449kts
19-Sep-17 21:20 32.847306 -114.576340 288 35889ft 423kts
19-Sep-17 21:21 32.881811 -114.708852 280 33860ft 435kts
19-Sep-17 21:22 32.880569 -114.851123 268 31922ft 436kts
19-Sep-17 21:23 32.876829 -114.996082 268 30019ft 441kts
19-Sep-17 21:24 32.873328 -115.141483 268 28019ft 436kts
19-Sep-17 21:25 32.869776 -115.283732 268 26113ft 425kts
19-Sep-17 21:26 32.857346 -115.417665 261 24393ft 411kts
19-Sep-17 21:27 32.837615 -115.546286 258 23004ft 387kts
19-Sep-17 21:28 32.817725 -115.669560 259 21283ft 380kts
19-Sep-17 21:29 32.796924 -115.790011 259 19622ft 372kts
19-Sep-17 21:30 32.782831 -115.910590 265 17826ft 368kts
19-Sep-17 21:31 32.774060 -116.027389 265 16810ft 344kts
19-Sep-17 21:32 32.765720 -116.137419 265 14458ft 331kts
19-Sep-17 21:33 32.757322 -116.246936 265 12691ft 338kts
19-Sep-17 21:34 32.749479 -116.350315 265 11462ft 307kts
19-Sep-17 21:35 32.743465 -116.450189 269 10380ft 301kts
19-Sep-17 21:36 32.738022 -116.540181 265 9548ft 269kts
19-Sep-17 21:37 32.729736 -116.628268 265 8536ft 269kts
19-Sep-17 21:38 32.722467 -116.714798 265 7385ft 275kts
19-Sep-17 21:39 32.712898 -116.799466 260 6252ft 266kts
19-Sep-17 21:40 32.690582 -116.876349 250 5522ft 229kts
19-Sep-17 21:41 32.673446 -116.944221 279 4663ft 223kts
19-Sep-17 21:42 32.690501 -117.008752 287 2847ft 204kts
19-Sep-17 21:43 32.703355 -117.064142 283 1880ft 146kts
19-Sep-17 21:44 32.712967 -117.104985 283 1491ft 138kts
19-Sep-17 21:45 32.723174 -117.147198 283 754ft 138kts
19-Sep-17 21:46 32.733404 -117.189123 286 25ft 119kts
19-Sep-17 21:47 32.735632 -117.202201 192 21ft 8kts
19-Sep-17 21:48 32.735094 -117.200463 101 21ft 12kts
19-Sep-17 21:49 32.733030 -117.200052 232 21ft 5kts
19-Sep-17 21:50 32.733066 -117.200568 279 21ft 0kts
19-Sep-17 21:51 32.733066 -117.200568 279 21ft 0kts
19-Sep-17 21:52 32.733066 -117.200568 279 21ft 0kts
19-Sep-17 21:53 32.733066 -117.200568 279 21ft 0kts
19-Sep-17 21:54 32.733066 -117.200568 279 21ft 0kts
19-Sep-17 21:55 32.733066 -117.200568 279 21ft 0kts
19-Sep-17 21:56 32.733066 -117.200568 279 21ft 0kts

Navigation Log

Ident Type
Flight plan parsing failed, navigation log unavailable